createdAt,value
2019-04-05T00:00:12.400Z,6.10
2019-04-05T00:02:42.054Z,6.00
2019-04-05T00:05:11.807Z,6.00
2019-04-05T00:07:41.167Z,6.00
2019-04-05T00:10:11.271Z,5.90
2019-04-05T00:12:40.646Z,5.90
2019-04-05T00:15:15.536Z,5.90
2019-04-05T00:17:41.411Z,5.90
2019-04-05T00:20:11.167Z,5.80
2019-04-05T00:22:40.468Z,5.90
2019-04-05T00:25:10.141Z,5.90
2019-04-05T00:27:39.486Z,5.80
2019-04-05T00:30:10.526Z,5.90
2019-04-05T00:32:39.835Z,5.90
2019-04-05T00:35:09.242Z,5.90
2019-04-05T00:37:38.543Z,5.90
2019-04-05T00:40:11.526Z,5.90
2019-04-05T00:42:40.900Z,6.00
2019-04-05T00:45:10.712Z,6.00
2019-04-05T00:47:40.015Z,5.90
2019-04-05T00:50:10.503Z,5.90
2019-04-05T00:52:39.810Z,5.90
2019-04-05T00:55:09.904Z,5.80
2019-04-05T00:57:39.325Z,5.90
2019-04-05T01:00:09.835Z,5.90
2019-04-05T01:02:39.173Z,6.00
2019-04-05T01:05:08.621Z,6.00
2019-04-05T01:07:38.283Z,6.00
2019-04-05T01:10:09.894Z,5.90
2019-04-05T01:12:41.648Z,5.80
2019-04-05T01:15:14.348Z,5.90
2019-04-05T01:17:44.086Z,5.90
2019-04-05T01:20:14.708Z,5.90
2019-04-05T01:22:47.084Z,5.90
2019-04-05T01:25:16.451Z,5.90
2019-04-05T01:27:48.321Z,5.90
2019-04-05T01:30:18.363Z,5.90
2019-04-05T01:32:48.508Z,5.80
2019-04-05T01:35:18.013Z,5.80
2019-04-05T01:37:48.420Z,5.80
2019-04-05T01:40:18.432Z,5.80
2019-04-05T01:42:49.112Z,5.90
2019-04-05T01:45:19.115Z,5.90
2019-04-05T01:47:48.716Z,5.80
2019-04-05T01:50:18.394Z,5.80
2019-04-05T01:52:49.007Z,5.80
2019-04-05T01:55:18.310Z,5.90
2019-04-05T01:57:47.933Z,6.00
2019-04-05T02:00:17.671Z,6.00
2019-04-05T02:02:47.351Z,5.90
2019-04-05T02:05:19.009Z,5.90
2019-04-05T02:07:48.382Z,5.90
2019-04-05T02:10:17.897Z,5.90
2019-04-05T02:12:47.240Z,5.90
2019-04-05T02:15:34.991Z,5.90
2019-04-05T02:18:04.399Z,5.90
2019-04-05T02:20:33.795Z,5.80
2019-04-05T02:23:03.296Z,5.80
2019-04-05T02:25:32.635Z,5.80
2019-04-05T02:28:02.007Z,5.90
2019-04-05T02:30:34.209Z,5.80
2019-04-05T02:33:03.860Z,5.70
2019-04-05T02:35:33.168Z,5.70
2019-04-05T02:38:02.747Z,5.70
2019-04-05T02:40:34.228Z,5.70
2019-04-05T02:43:05.450Z,5.70
2019-04-05T02:45:39.538Z,5.70
2019-04-05T02:48:13.121Z,5.70
2019-04-05T02:50:47.371Z,5.70
2019-04-05T02:53:20.119Z,5.70
2019-04-05T02:55:50.792Z,5.70
2019-04-05T02:58:22.153Z,5.70
2019-04-05T03:00:51.898Z,5.70
2019-04-05T03:03:21.394Z,5.70
2019-04-05T03:05:51.192Z,5.80
2019-04-05T03:08:20.606Z,5.80
2019-04-05T03:11:13.867Z,5.80
2019-04-05T03:13:52.498Z,5.70
2019-04-05T03:16:40.395Z,5.60
2019-04-05T03:19:08.349Z,5.50
2019-04-05T03:21:42.672Z,5.50
2019-04-05T03:24:16.738Z,5.60
2019-04-05T03:26:53.301Z,5.60
2019-04-05T03:29:23.609Z,5.60
2019-04-05T03:31:53.928Z,5.60
2019-04-05T03:34:23.934Z,5.50
2019-04-05T03:36:53.942Z,5.50
2019-04-05T03:39:24.438Z,5.40
2019-04-05T03:41:55.517Z,5.40
2019-04-05T03:44:25.223Z,5.40
2019-04-05T03:46:58.567Z,5.50
2019-04-05T03:49:29.420Z,5.40
2019-04-05T03:51:58.793Z,5.40
2019-04-05T03:54:28.422Z,5.30
2019-04-05T03:56:58.916Z,5.30
2019-04-05T03:59:28.379Z,5.30
2019-04-05T04:01:57.830Z,5.30
2019-04-05T04:04:27.553Z,5.30
2019-04-05T04:06:57.333Z,5.30
2019-04-05T04:09:27.424Z,5.20
2019-04-05T04:11:57.383Z,5.30
2019-04-05T04:14:26.764Z,5.40
2019-04-05T04:17:11.540Z,5.40
2019-04-05T04:19:29.231Z,5.50
2019-04-05T04:22:14.260Z,5.40
2019-04-05T04:24:44.048Z,5.50
2019-04-05T04:27:14.239Z,5.50
2019-04-05T04:29:44.349Z,5.50
2019-04-05T04:32:15.211Z,5.50
2019-04-05T04:34:45.116Z,5.50
2019-04-05T04:37:14.926Z,5.40
2019-04-05T04:39:45.249Z,5.40
2019-04-05T04:42:15.784Z,5.40
2019-04-05T04:44:45.223Z,5.40
2019-04-05T04:47:25.694Z,5.30
2019-04-05T04:49:46.282Z,5.30
2019-04-05T04:52:16.892Z,5.30
2019-04-05T04:54:48.889Z,5.30
2019-04-05T04:57:18.262Z,5.40
2019-04-05T04:59:47.640Z,5.30
2019-04-05T05:02:17.139Z,5.30
2019-04-05T05:04:46.776Z,5.30
2019-04-05T05:07:16.148Z,5.40
2019-04-05T05:09:45.571Z,5.40
2019-04-05T05:12:15.015Z,5.40
2019-04-05T05:14:44.308Z,5.30
2019-04-05T05:17:14.377Z,5.40
2019-04-05T05:19:44.019Z,5.30
2019-04-05T05:22:13.492Z,5.30
2019-04-05T05:24:43.087Z,5.20
2019-04-05T05:27:12.422Z,5.20
2019-04-05T05:29:41.860Z,5.30
2019-04-05T05:32:11.662Z,5.40
2019-04-05T05:34:41.020Z,5.40
2019-04-05T05:37:10.790Z,5.40
2019-04-05T05:39:40.225Z,5.30
2019-04-05T05:42:09.620Z,5.30
2019-04-05T05:44:38.988Z,5.30
2019-04-05T05:47:08.590Z,5.30
2019-04-05T05:49:37.883Z,5.20
2019-04-05T05:52:07.747Z,5.20
2019-04-05T05:54:37.086Z,5.30
2019-04-05T05:57:06.651Z,5.20
2019-04-05T05:59:36.262Z,5.30
2019-04-05T06:02:07.283Z,5.20
2019-04-05T06:04:36.707Z,5.10
2019-04-05T06:07:06.386Z,5.10
2019-04-05T06:09:35.728Z,5.20
2019-04-05T06:12:05.101Z,5.30
2019-04-05T06:14:34.403Z,5.30
2019-04-05T06:17:03.842Z,5.20
2019-04-05T06:19:33.133Z,5.10
2019-04-05T06:22:02.831Z,5.20
2019-04-05T06:24:32.173Z,5.30
2019-04-05T06:27:01.555Z,5.20
2019-04-05T06:29:31.150Z,5.20
2019-04-05T06:32:00.504Z,5.20
2019-04-05T06:34:29.805Z,5.20
2019-04-05T06:36:59.104Z,5.20
2019-04-05T06:39:28.754Z,5.20
2019-04-05T06:41:58.046Z,5.20
2019-04-05T06:44:28.145Z,5.30
2019-04-05T06:46:57.886Z,5.30
2019-04-05T06:49:27.187Z,5.40
2019-04-05T06:51:56.775Z,5.50
2019-04-05T06:54:26.382Z,5.70
2019-04-05T06:56:55.688Z,5.80
2019-04-05T06:59:24.994Z,5.90
2019-04-05T07:01:54.344Z,5.90
2019-04-05T07:04:23.646Z,5.90
2019-04-05T07:06:53.213Z,6.00
2019-04-05T07:09:22.548Z,6.10
2019-04-05T07:11:51.892Z,6.20
2019-04-05T07:14:21.186Z,6.30
2019-04-05T07:16:50.543Z,6.30
2019-04-05T07:19:19.843Z,6.40
2019-04-05T07:21:49.404Z,6.50
2019-04-05T07:24:18.738Z,6.60
2019-04-05T07:26:51.049Z,6.70
2019-04-05T07:29:20.683Z,6.70
2019-04-05T07:31:50.311Z,6.80
2019-04-05T07:34:19.610Z,6.90
2019-04-05T07:36:48.911Z,6.90
2019-04-05T07:39:18.328Z,7.00
2019-04-05T07:41:47.567Z,7.10
2019-04-05T07:44:16.876Z,7.10
2019-04-05T07:46:46.681Z,7.00
2019-04-05T07:49:16.430Z,7.10
2019-04-05T07:51:45.738Z,7.20
2019-04-05T07:54:15.421Z,7.20
2019-04-05T07:56:46.230Z,7.30
2019-04-05T07:59:15.795Z,7.40
2019-04-05T08:01:45.139Z,7.40
2019-04-05T08:04:14.443Z,7.40
2019-04-05T08:06:45.655Z,7.50
2019-04-05T08:09:16.508Z,7.60
2019-04-05T08:11:47.902Z,7.80
2019-04-05T08:14:18.386Z,7.80
2019-04-05T08:16:48.197Z,7.80
2019-04-05T08:19:17.493Z,7.80
2019-04-05T08:21:46.796Z,7.90
2019-04-05T08:24:16.192Z,8.00
2019-04-05T08:26:45.737Z,8.20
2019-04-05T08:29:15.212Z,8.50
2019-04-05T08:31:44.852Z,8.70
2019-04-05T08:34:14.166Z,8.90
2019-04-05T08:36:43.465Z,8.90
2019-04-05T08:39:12.803Z,8.80
2019-04-05T08:41:42.371Z,8.70
2019-04-05T08:44:11.742Z,8.50
2019-04-05T08:46:41.089Z,8.40
2019-04-05T08:49:13.319Z,8.30
2019-04-05T08:51:42.617Z,8.40
2019-04-05T08:54:11.963Z,8.50
2019-04-05T08:56:43.929Z,8.60
2019-04-05T08:59:13.227Z,8.70
2019-04-05T09:01:42.583Z,8.80
2019-04-05T09:04:12.203Z,8.90
2019-04-05T09:06:41.507Z,9.00
2019-04-05T09:09:10.849Z,9.10
2019-04-05T09:11:40.225Z,9.30
2019-04-05T09:14:09.525Z,9.40
2019-04-05T09:16:38.886Z,9.40
2019-04-05T09:19:08.539Z,9.30
2019-04-05T09:21:40.513Z,9.40
2019-04-05T09:24:11.936Z,9.50
2019-04-05T09:26:41.537Z,9.60
2019-04-05T09:29:10.834Z,9.60
2019-04-05T09:31:40.173Z,9.50
2019-04-05T09:34:09.746Z,9.40
2019-04-05T09:36:39.044Z,9.40
2019-04-05T09:39:15.041Z,9.30
2019-04-05T09:41:41.588Z,9.40
2019-04-05T09:44:10.886Z,9.60
2019-04-05T09:46:47.126Z,9.80
2019-04-05T09:49:14.185Z,10.00
2019-04-05T09:51:43.490Z,9.90
2019-04-05T09:54:12.850Z,10.10
2019-04-05T09:56:42.458Z,10.40
2019-04-05T09:59:11.771Z,10.30
2019-04-05T10:01:42.812Z,10.00
2019-04-05T10:04:12.504Z,10.10
2019-04-05T10:06:41.814Z,10.00
2019-04-05T10:09:11.168Z,10.00
2019-04-05T10:11:40.472Z,10.00
2019-04-05T10:14:10.010Z,10.00
2019-04-05T10:16:39.359Z,9.90
2019-04-05T10:19:08.664Z,10.00
2019-04-05T10:21:40.939Z,10.00
2019-04-05T10:24:10.318Z,9.90
2019-04-05T10:26:39.618Z,9.80
2019-04-05T10:29:08.928Z,9.80
2019-04-05T10:31:38.301Z,9.90
2019-04-05T10:34:07.596Z,10.00
2019-04-05T10:36:36.896Z,10.00
2019-04-05T10:39:10.070Z,10.10
2019-04-05T10:41:39.845Z,10.20
2019-04-05T10:44:10.792Z,10.20
2019-04-05T10:46:40.148Z,10.20
2019-04-05T10:49:09.453Z,10.20
2019-04-05T10:51:39.036Z,10.20
2019-04-05T10:54:09.658Z,10.40
2019-04-05T10:56:39.097Z,10.50
2019-04-05T10:59:08.787Z,10.60
2019-04-05T11:01:38.404Z,10.70
2019-04-05T11:04:07.727Z,10.70
2019-04-05T11:06:37.029Z,10.70
2019-04-05T11:09:08.547Z,10.60
2019-04-05T11:11:37.850Z,10.70
2019-04-05T11:14:13.605Z,10.70
2019-04-05T11:16:41.371Z,10.70
2019-04-05T11:19:10.681Z,10.80
2019-04-05T11:21:40.156Z,10.70
2019-04-05T11:24:09.775Z,10.60
2019-04-05T11:26:39.384Z,10.80
2019-04-05T11:29:08.689Z,11.00
2019-04-05T11:31:38.288Z,11.30
2019-04-05T11:34:07.593Z,11.60
2019-04-05T11:36:38.124Z,11.60
2019-04-05T11:39:09.415Z,11.40
2019-04-05T11:41:40.334Z,11.20
2019-04-05T11:44:09.655Z,11.50
2019-04-05T11:46:40.263Z,11.30
2019-04-05T11:49:09.570Z,11.20
2019-04-05T11:51:38.883Z,11.30
2019-04-05T11:54:08.515Z,11.40
2019-04-05T11:56:37.776Z,11.50
2019-04-05T11:59:08.734Z,11.60
2019-04-05T12:01:45.410Z,11.60
2019-04-05T12:04:14.688Z,11.50
2019-04-05T12:06:43.996Z,11.50
2019-04-05T12:09:13.357Z,11.40
2019-04-05T12:11:42.672Z,11.40
2019-04-05T12:14:12.257Z,11.40
2019-04-05T12:16:41.614Z,11.30
2019-04-05T12:19:10.928Z,11.20
2019-04-05T12:21:40.251Z,11.10
2019-04-05T12:24:09.614Z,11.00
2019-04-05T12:26:42.748Z,10.90
2019-04-05T12:29:12.413Z,10.90
2019-04-05T12:31:41.785Z,11.20
2019-04-05T12:34:11.101Z,11.40
2019-04-05T12:36:40.672Z,11.50
2019-04-05T12:39:10.278Z,11.70
2019-04-05T12:41:40.996Z,11.60
2019-04-05T12:44:14.182Z,11.60
2019-04-05T12:46:45.834Z,11.20
2019-04-05T12:49:16.082Z,11.20
2019-04-05T12:51:46.093Z,11.10
2019-04-05T12:54:16.067Z,11.00
2019-04-05T12:56:45.817Z,11.00
2019-04-05T12:59:15.139Z,11.00
2019-04-05T13:01:45.652Z,10.90
2019-04-05T13:04:15.878Z,10.80
2019-04-05T13:06:45.184Z,10.90
2019-04-05T13:09:14.816Z,10.70
2019-04-05T13:11:44.121Z,10.70
2019-04-05T13:14:13.430Z,10.80
2019-04-05T13:16:42.809Z,10.70
2019-04-05T13:19:12.119Z,10.90
2019-04-05T13:21:41.566Z,10.90
2019-04-05T13:24:10.928Z,10.90
2019-04-05T13:26:42.150Z,10.90
2019-04-05T13:29:11.265Z,11.00
2019-04-05T13:31:40.934Z,11.00
2019-04-05T13:34:10.560Z,10.90
2019-04-05T13:36:40.566Z,10.90
2019-04-05T13:39:10.578Z,10.90
2019-04-05T13:41:39.880Z,10.80
2019-04-05T13:44:09.184Z,10.80
2019-04-05T13:46:39.290Z,10.80
2019-04-05T13:49:10.573Z,10.70
2019-04-05T13:51:42.120Z,10.70
2019-04-05T13:54:11.594Z,10.80
2019-04-05T13:56:41.530Z,10.80
2019-04-05T13:59:11.211Z,10.80
2019-04-05T14:01:40.851Z,10.80
2019-04-05T14:04:10.437Z,10.80
2019-04-05T14:06:39.749Z,10.90
2019-04-05T14:09:10.470Z,10.90
2019-04-05T14:11:40.447Z,10.70
2019-04-05T14:14:12.180Z,10.90
2019-04-05T14:16:42.929Z,10.80
2019-04-05T14:19:11.935Z,10.90
2019-04-05T14:21:47.318Z,11.00
2019-04-05T14:24:13.035Z,10.80
2019-04-05T14:26:43.743Z,10.70
2019-04-05T14:29:13.221Z,10.80
2019-04-05T14:31:42.891Z,10.70
2019-04-05T14:34:12.188Z,10.60
2019-04-05T14:36:41.499Z,10.70
2019-04-05T14:39:11.793Z,10.70
2019-04-05T14:41:41.172Z,10.50
2019-04-05T14:44:10.479Z,10.50
2019-04-05T14:46:39.838Z,10.50
2019-04-05T14:49:09.511Z,10.40
2019-04-05T14:51:38.821Z,10.40
2019-04-05T14:54:09.955Z,10.50
2019-04-05T14:56:39.223Z,10.50
2019-04-05T14:59:08.529Z,10.50
2019-04-05T15:01:37.885Z,10.50
2019-04-05T15:04:07.459Z,10.50
2019-04-05T15:06:36.773Z,10.50
2019-04-05T15:09:07.564Z,10.50
2019-04-05T15:11:36.896Z,10.50
2019-04-05T15:14:06.276Z,10.50
2019-04-05T15:16:35.624Z,10.50
2019-04-05T15:19:06.021Z,10.60
2019-04-05T15:21:38.838Z,10.70
2019-04-05T15:24:08.781Z,10.70
2019-04-05T15:26:37.613Z,10.70
2019-04-05T15:29:07.248Z,10.70
2019-04-05T15:31:36.860Z,10.70
2019-04-05T15:34:06.239Z,10.60
2019-04-05T15:36:35.560Z,10.70
2019-04-05T15:39:09.234Z,10.60
2019-04-05T15:41:38.620Z,10.60
2019-04-05T15:44:07.950Z,10.50
2019-04-05T15:46:37.540Z,10.60
2019-04-05T15:49:06.922Z,10.50
2019-04-05T15:51:36.219Z,10.50
2019-04-05T15:54:05.649Z,10.50
2019-04-05T15:56:35.016Z,10.50
2019-04-05T15:59:04.841Z,10.50
2019-04-05T16:01:34.958Z,10.40
2019-04-05T16:04:04.523Z,10.40
2019-04-05T16:06:33.820Z,10.40
2019-04-05T16:09:03.173Z,10.40
2019-04-05T16:11:32.472Z,10.40
2019-04-05T16:14:01.783Z,10.50
2019-04-05T16:16:31.160Z,10.40
2019-04-05T16:19:00.465Z,10.30
2019-04-05T16:21:32.446Z,10.30
2019-04-05T16:24:01.806Z,10.30
2019-04-05T16:26:31.114Z,10.30
2019-04-05T16:29:00.467Z,10.20
2019-04-05T16:31:29.836Z,10.20
2019-04-05T16:33:59.148Z,10.20
2019-04-05T16:36:30.877Z,10.20
2019-04-05T16:38:59.526Z,10.20
2019-04-05T16:41:28.827Z,10.20
2019-04-05T16:43:58.130Z,10.20
2019-04-05T16:46:27.497Z,10.10
2019-04-05T16:48:57.443Z,10.10
2019-04-05T16:51:27.017Z,10.20
2019-04-05T16:53:59.768Z,10.10
2019-04-05T16:56:29.820Z,10.00
2019-04-05T16:58:59.199Z,10.00
2019-04-05T17:01:28.545Z,9.90
2019-04-05T17:03:58.131Z,9.90
2019-04-05T17:06:27.436Z,9.80
2019-04-05T17:08:56.784Z,9.80
2019-04-05T17:11:26.357Z,9.80
2019-04-05T17:13:59.396Z,9.80
2019-04-05T17:16:27.304Z,9.70
2019-04-05T17:18:56.929Z,9.80
2019-04-05T17:21:26.287Z,9.80
2019-04-05T17:23:55.907Z,9.70
2019-04-05T17:26:25.229Z,9.80
2019-04-05T17:28:54.596Z,9.80
2019-04-05T17:31:23.884Z,9.80
2019-04-05T17:33:53.531Z,9.80
2019-04-05T17:36:25.578Z,9.70
2019-04-05T17:38:55.164Z,9.60
2019-04-05T17:41:24.799Z,9.60
2019-04-05T17:43:54.101Z,9.60
2019-04-05T17:46:23.443Z,9.60
2019-04-05T17:48:52.787Z,9.60
2019-04-05T17:51:22.173Z,9.60
2019-04-05T17:53:51.540Z,9.60
2019-04-05T17:56:21.616Z,9.50
2019-04-05T17:58:51.355Z,9.50
2019-04-05T18:01:21.097Z,9.50
2019-04-05T18:03:50.774Z,9.50
2019-04-05T18:06:20.079Z,9.50
2019-04-05T18:08:49.433Z,9.40
2019-04-05T18:11:19.062Z,9.30
2019-04-05T18:13:48.362Z,9.30
2019-04-05T18:16:18.099Z,9.40
2019-04-05T18:18:47.676Z,9.50
2019-04-05T18:21:17.167Z,9.40
2019-04-05T18:23:46.787Z,9.40
2019-04-05T18:26:16.398Z,9.40
2019-04-05T18:28:45.707Z,9.40
2019-04-05T18:31:15.060Z,9.30
2019-04-05T18:33:44.358Z,9.20
2019-04-05T18:36:13.676Z,9.10
2019-04-05T18:38:43.404Z,9.20
2019-04-05T18:41:13.020Z,9.20
2019-04-05T18:43:42.440Z,9.20
2019-04-05T18:46:11.808Z,9.20
2019-04-05T18:48:41.113Z,9.00
2019-04-05T18:51:10.419Z,9.00
2019-04-05T18:53:40.027Z,9.00
2019-04-05T18:56:09.337Z,9.10
2019-04-05T18:58:38.626Z,9.10
2019-04-05T19:01:08.243Z,9.10
2019-04-05T19:03:37.537Z,9.10
2019-04-05T19:06:06.858Z,9.00
2019-04-05T19:08:39.830Z,9.10
2019-04-05T19:11:07.436Z,9.00
2019-04-05T19:13:37.010Z,9.00
2019-04-05T19:16:06.702Z,9.00
2019-04-05T19:18:36.107Z,9.00
2019-04-05T19:21:05.754Z,9.00
2019-04-05T19:23:35.417Z,9.10
2019-04-05T19:26:04.899Z,9.00
2019-04-05T19:28:34.211Z,9.00
2019-04-05T19:48:41.046Z,8.90
2019-04-05T19:51:10.337Z,8.90
2019-04-05T19:53:39.675Z,8.90
2019-04-05T19:56:09.248Z,9.00
2019-04-05T19:58:38.546Z,8.90
2019-04-05T20:01:07.901Z,8.90
2019-04-05T20:03:37.538Z,8.90
2019-04-05T20:06:07.998Z,8.90
2019-04-05T20:08:37.279Z,8.90
2019-04-05T20:11:06.831Z,8.90
2019-04-05T20:13:36.107Z,8.90
2019-04-05T20:16:05.450Z,8.90
2019-04-05T20:18:34.764Z,8.80
2019-04-05T20:21:04.375Z,8.90
2019-04-05T20:23:33.721Z,8.90
2019-04-05T20:26:03.026Z,8.80
2019-04-05T20:28:32.682Z,8.80
2019-04-05T20:31:02.041Z,8.80
2019-04-05T20:33:31.364Z,8.80
2019-04-05T20:36:00.651Z,8.80
2019-04-05T20:38:30.002Z,8.80
2019-04-05T20:40:59.311Z,8.80
2019-04-05T20:43:28.614Z,8.70
2019-04-05T20:45:58.289Z,8.70
2019-04-05T20:48:27.617Z,8.80
2019-04-05T20:50:59.593Z,8.80
2019-04-05T20:53:28.971Z,8.80
2019-04-05T20:55:58.269Z,8.70
2019-04-05T20:58:27.566Z,8.60
2019-04-05T21:00:56.921Z,8.70
2019-04-05T21:03:26.251Z,8.70
2019-04-05T21:05:55.533Z,8.70
2019-04-05T21:08:24.888Z,8.70
2019-04-05T21:10:54.206Z,8.70
2019-04-05T21:13:23.502Z,8.70
2019-04-05T21:15:52.849Z,8.70
2019-04-05T21:18:22.155Z,8.70
2019-04-05T21:20:51.456Z,8.80
2019-04-05T21:23:20.804Z,8.80
2019-04-05T21:25:50.375Z,8.70
2019-04-05T21:28:19.674Z,8.80
2019-04-05T21:30:49.286Z,8.70
2019-04-05T21:33:18.581Z,8.60
2019-04-05T21:35:48.457Z,8.70
2019-04-05T21:38:17.800Z,8.60
2019-04-05T21:40:52.745Z,8.60
2019-04-05T21:43:22.055Z,8.60
2019-04-05T21:45:51.738Z,8.60
2019-04-05T21:48:21.042Z,8.50
2019-04-05T21:50:50.338Z,8.60
2019-04-05T21:53:19.780Z,8.60
2019-04-05T21:55:49.143Z,8.60
2019-04-05T21:58:18.749Z,8.60
2019-04-05T22:00:53.728Z,8.60
2019-04-05T22:03:23.391Z,8.70
2019-04-05T22:05:52.994Z,8.80
2019-04-05T22:08:22.597Z,8.70
2019-04-05T22:10:51.951Z,8.60
2019-04-05T22:13:21.260Z,8.60
2019-04-05T22:15:50.844Z,8.60
2019-04-05T22:18:20.137Z,8.70
2019-04-05T22:20:49.444Z,8.60
2019-04-05T22:23:18.802Z,8.70
2019-04-05T22:25:48.094Z,8.60
2019-04-05T22:28:17.401Z,8.60
2019-04-05T22:30:47.021Z,8.70
2019-04-05T22:33:16.324Z,8.60
2019-04-05T22:35:45.691Z,8.60
2019-04-05T22:38:15.044Z,8.60
2019-04-05T22:40:44.341Z,8.60
2019-04-05T22:43:13.636Z,8.60
2019-04-05T22:45:43.243Z,8.60
2019-04-05T22:48:12.528Z,8.70
2019-04-05T22:50:41.819Z,8.70
2019-04-05T22:53:11.436Z,8.60
2019-04-05T22:55:40.737Z,8.70
2019-04-05T22:58:10.064Z,8.60
2019-04-05T23:00:39.419Z,8.60
2019-04-05T23:03:09.055Z,8.60
2019-04-05T23:05:38.339Z,8.50
2019-04-05T23:08:07.748Z,8.60
2019-04-05T23:10:37.354Z,8.60
2019-04-05T23:13:06.702Z,8.50
2019-04-05T23:15:36.019Z,8.50
2019-04-05T23:18:05.387Z,8.60
2019-04-05T23:20:34.680Z,8.50
2019-04-05T23:23:04.373Z,8.60
2019-04-05T23:25:33.671Z,8.50
2019-04-05T23:28:02.967Z,8.60
2019-04-05T23:30:33.485Z,8.60
2019-04-05T23:33:02.787Z,8.50
2019-04-05T23:35:32.402Z,8.50
2019-04-05T23:38:02.010Z,8.50
2019-04-05T23:40:31.308Z,8.50
2019-04-05T23:43:00.634Z,8.60
2019-04-05T23:45:29.952Z,8.60
2019-04-05T23:47:59.537Z,8.60
2019-04-05T23:50:28.837Z,8.60
2019-04-05T23:52:58.197Z,8.60
2019-04-05T23:55:33.207Z,8.50
2019-04-05T23:57:59.710Z,8.50
